Map

Track Data

SID SEASON NUMBER BASIN SUBBASIN NAME ISO_TIME NATURE LAT LON WMO_WIND WMO_PRES WMO_AGENCY TRACK_TYPE DIST2LAND LANDFALL IFLAG USA_AGENCY USA_ATCF_ID USA_LAT USA_LON USA_RECORD USA_STATUS USA_WIND USA_PRES USA_SSHS USA_R34_NE USA_R34_SE USA_R34_SW USA_R34_NW USA_R50_NE USA_R50_SE USA_R50_SW USA_R50_NW USA_R64_NE USA_R64_SE USA_R64_SW USA_R64_NW USA_POCI USA_ROCI USA_RMW USA_EYE TOKYO_LAT TOKYO_LON TOKYO_GRADE TOKYO_WIND TOKYO_PRES TOKYO_R50_DIR TOKYO_R50_LONG TOKYO_R50_SHORT TOKYO_R30_DIR TOKYO_R30_LONG TOKYO_R30_SHORT TOKYO_LAND CMA_LAT CMA_LON CMA_CAT CMA_WIND CMA_PRES HKO_LAT HKO_LON HKO_CAT HKO_WIND HKO_PRES NEWDELHI_LAT NEWDELHI_LON NEWDELHI_GRADE NEWDELHI_WIND NEWDELHI_PRES NEWDELHI_CI NEWDELHI_DP NEWDELHI_POCI REUNION_LAT REUNION_LON REUNION_TYPE REUNION_WIND REUNION_PRES REUNION_TNUM REUNION_CI REUNION_RMW REUNION_R34_NE REUNION_R34_SE REUNION_R34_SW REUNION_R34_NW REUNION_R50_NE REUNION_R50_SE REUNION_R50_SW REUNION_R50_NW REUNION_R64_NE REUNION_R64_SE REUNION_R64_SW REUNION_R64_NW BOM_LAT BOM_LON BOM_TYPE BOM_WIND BOM_PRES BOM_TNUM BOM_CI BOM_RMW BOM_R34_NE BOM_R34_SE BOM_R34_SW BOM_R34_NW BOM_R50_NE BOM_R50_SE BOM_R50_SW BOM_R50_NW BOM_R64_NE BOM_R64_SE BOM_R64_SW BOM_R64_NW BOM_ROCI BOM_POCI BOM_EYE BOM_POS_METHOD BOM_PRES_METHOD NADI_LAT NADI_LON NADI_CAT NADI_WIND NADI_PRES WELLINGTON_LAT WELLINGTON_LON WELLINGTON_WIND WELLINGTON_PRES DS824_LAT DS824_LON DS824_STAGE DS824_WIND DS824_PRES TD9636_LAT TD9636_LON TD9636_STAGE TD9636_WIND TD9636_PRES TD9635_LAT TD9635_LON TD9635_WIND TD9635_PRES TD9635_ROCI NEUMANN_LAT NEUMANN_LON NEUMANN_CLASS NEUMANN_WIND NEUMANN_PRES MLC_LAT MLC_LON MLC_CLASS MLC_WIND MLC_PRES USA_GUST BOM_GUST BOM_GUST_PER REUNION_GUST REUNION_GUST_PER USA_SEAHGT USA_SEARAD_NE USA_SEARAD_SE USA_SEARAD_SW USA_SEARAD_NW STORM_SPEED STORM_DIR
1948255N14155 1948 61 WP MM IONE 1948-09-11 06:00:00 TS 14.3000 155.000 main 1957 1943 O________O_O__ jtwc_wp WP141948 14.3000 155.000 40 0 14.3000 155.000 TC 40 14.3000 155.000 40 996 240 13 267
1948255N14155 1948 61 WP MM IONE 1948-09-11 09:00:00 TS 14.2725 154.355 main 1943 1927 P________P_P__ WP141948 14.2725 154.355 40 0 14.2725 154.355 TC 40 14.2725 154.355 40 994 240 14 270
1948255N14155 1948 61 WP MM IONE 1948-09-11 12:00:00 TS 14.3000 153.600 main 1927 1919 O________OOO__ jtwc_wp WP141948 14.3000 153.600 40 0 14.3000 153.600 TC 40 14.3000 153.600 2 40 14.3000 153.600 40 993 240 16 275
1948255N14155 1948 61 WP MM IONE 1948-09-11 15:00:00 TS 14.4216 152.668 main 1925 1923 P________PPP__ WP141948 14.4202 152.673 42 0 14.4202 152.673 TC 42 14.4301 152.641 2 42 14.4202 152.673 42 992 240 19 279
1948255N14155 1948 61 WP MM IONE 1948-09-11 18:00:00 TS 14.5953 151.701 main 1929 1921 O________OPO__ jtwc_wp WP141948 14.6000 151.700 45 0 14.6000 151.700 TC 45 14.5765 151.705 2 45 14.6000 151.700 45 991 240 18 281
1948255N14155 1948 61 WP MM IONE 1948-09-11 21:00:00 TS 14.7672 150.808 main 1929 1923 P________PPP__ WP141948 14.7698 150.805 47 0 14.7698 150.805 TC 47 14.7595 150.817 2 47 14.7698 150.805 47 989 300 17 284
1948255N14155 1948 61 WP MM IONE 1948-09-12 00:00:00 TS 15.0000 150.000 main 1936 1935 O________OOO__ jtwc_wp WP141948 15.0000 150.000 50 0 15.0000 150.000 TC 50 15.0000 150.000 2 50 15.0000 150.000 50 988 360 16 291
1948255N14155 1948 61 WP MM IONE 1948-09-12 03:00:00 TS 15.3124 149.307 main 1960 1960 P________PPP__ WP141948 15.3120 149.320 52 0 15.3120 149.320 TC 52 15.3134 149.270 2 52 15.3120 149.320 52 986 390 15 299
1948255N14155 1948 61 WP MM IONE 1948-09-12 06:00:00 TS 15.6983 148.677 main 1999 1998 O________OPO__ jtwc_wp WP141948 15.7000 148.700 55 0 15.7000 148.700 TC 55 15.6931 148.609 2 55 15.7000 148.700 55 985 420 15 303
1948255N14155 1948 61 WP MM IONE 1948-09-12 09:00:00 TS 16.1158 148.036 main 2039 2039 P________PPP__ WP141948 16.1123 148.050 57 0 16.1123 148.050 TC 57 16.1262 147.994 2 57 16.1123 148.050 57 983 390 15 306
1948255N14155 1948 61 WP MM IONE 1948-09-12 12:00:00 TS 16.6000 147.400 main 2094 2094 O________OOO__ jtwc_wp WP141948 16.6000 147.400 60 0 16.6000 147.400 TC 60 16.6000 147.400 2 60 16.6000 147.400 60 982 360 16 311
1948255N14155 1948 61 WP MM IONE 1948-09-12 15:00:00 TS 17.1731 146.747 main 2088 2019 P________PPP__ WP141948 17.1999 146.735 60 0 17.1999 146.735 TC 60 17.0925 146.781 2 61 17.1999 146.735 60 980 360 17 313
1948255N14155 1948 61 WP MM IONE 1948-09-12 18:00:00 TS 17.7548 146.119 main 2005 1948 O________OPO__ jtwc_wp WP141948 17.8000 146.100 60 0 17.8000 146.100 TC 60 17.6192 146.177 2 62 17.8000 146.100 60 979 360 16 313
1948255N14155 1948 61 WP MM IONE 1948-09-12 21:00:00 TS 18.2388 145.552 main 1948 1877 P________PPP__ WP141948 18.2646 145.542 62 0 18.2646 145.542 TC 62 18.1613 145.584 2 63 18.2646 145.542 62 976 330 14 312
1948255N14155 1948 61 WP MM IONE 1948-09-13 00:00:00 TS 18.7000 145.000 main 1877 1800 O________OOO__ jtwc_wp WP141948 18.7000 145.000 65 1 18.7000 145.000 TC 65 18.7000 145.000 3 65 18.7000 145.000 65 974 300 15 311
1948255N14155 1948 61 WP MM IONE 1948-09-13 03:00:00 TS 19.1960 144.401 main 1800 1722 P________PPP__ WP141948 19.1924 144.400 65 1 19.1924 144.400 TC 65 19.2068 144.405 3 67 19.1924 144.400 65 971 270 15 312
1948255N14155 1948 61 WP MM IONE 1948-09-13 06:00:00 TS 19.7018 143.805 main 1722 1649 O________OPO__ jtwc_wp WP141948 19.7000 143.800 65 1 19.7000 143.800 TC 65 19.7070 143.819 3 70 19.7000 143.800 65 969 240 15 313
1948255N14155 1948 61 WP MM IONE 1948-09-13 09:00:00 TS 20.2064 143.244 main 1645 1572 P________PPP__ WP141948 20.2073 143.242 70 1 20.2073 143.242 TC 70 20.2037 143.248 3 72 20.2073 143.242 70 965 270 14 314
1948255N14155 1948 61 WP MM IONE 1948-09-13 12:00:00 TS 20.7000 142.700 main 1572 1511 O________OOO__ jtwc_wp WP141948 20.7000 142.700 75 1 20.7000 142.700 TC 75 20.7000 142.700 4 75 20.7000 142.700 75 962 300 14 313
1948255N14155 1948 61 WP MM IONE 1948-09-13 15:00:00 TS 21.1546 142.146 main 1496 1435 P________PPP__ WP141948 21.1425 142.135 77 1 21.1425 142.135 TC 77 21.1910 142.181 4 78 21.1425 142.135 77 957 300 14 312
1948255N14155 1948 61 WP MM IONE 1948-09-13 18:00:00 TS 21.6210 141.621 main 1435 1368 O________OPO__ jtwc_wp WP141948 21.6000 141.600 80 1 21.6000 141.600 TC 80 21.6839 141.683 4 82 21.6000 141.600 80 953 300 14 317
1948255N14155 1948 61 WP MM IONE 1948-09-13 21:00:00 TS 22.1472 141.160 main 1368 1287 P________PPP__ WP141948 22.1346 141.149 85 2 22.1346 141.149 TC 85 22.1848 141.193 4 86 22.1346 141.149 85 948 300 14 322
1948255N14155 1948 61 WP MM IONE 1948-09-14 00:00:00 TS 22.7000 140.700 main 1287 1216 O________OOO__ jtwc_wp WP141948 22.7000 140.700 90 2 22.7000 140.700 TC 90 22.7000 140.700 4 90 22.7000 140.700 90 944 300 14 320
1948255N14155 1948 61 WP MM IONE 1948-09-14 03:00:00 TS 23.2434 140.159 main 1216 1133 P________PPP__ WP141948 23.2500 140.157 95 2 23.2500 140.157 TC 95 23.2234 140.165 4 97 23.2500 140.157 95 939 300 15 317
1948255N14155 1948 61 WP MM IONE 1948-09-14 06:00:00 TS 23.7906 139.607 main 1133 1065 O________OPO__ jtwc_wp WP141948 23.8000 139.600 100 3 23.8000 139.600 TC 100 23.7626 139.627 4 105 23.8000 139.600 100 935 300 15 318
1948255N14155 1948 61 WP MM IONE 1948-09-14 09:00:00 TS 24.3312 139.094 main 1065 986 P________PPP__ WP141948 24.3348 139.092 110 3 24.3348 139.092 TC 110 24.3204 139.100 4 112 24.3348 139.092 110 930 270 14 320
1948255N14155 1948 61 WP MM IONE 1948-09-14 12:00:00 TS 24.9000 138.600 main 986 909 O________OOO__ jtwc_wp WP141948 24.9000 138.600 120 4 24.9000 138.600 TC 120 24.9000 138.600 4 120 24.9000 138.600 120 926 240 15 323
1948255N14155 1948 61 WP MM IONE 1948-09-14 15:00:00 TS 25.5287 138.084 main 909 832 P________PPP__ WP141948 25.5425 138.078 120 4 25.5425 138.078 TC 120 25.4871 138.102 4 117 25.5425 138.078 120 925 210 16 325
1948255N14155 1948 61 WP MM IONE 1948-09-14 18:00:00 TS 26.1744 137.609 main 821 748 O________OPO__ jtwc_wp WP141948 26.2000 137.600 120 4 26.2000 137.600 TC 120 26.0976 137.638 4 115 26.2000 137.600 120 925 180 15 328
1948255N14155 1948 61 WP MM IONE 1948-09-14 21:00:00 TS 26.7891 137.211 main 748 677 P________PPP__ WP141948 26.8073 137.205 115 4 26.8073 137.205 TC 115 26.7342 137.230 4 112 26.8073 137.205 115 926 210 14 333
1948255N14155 1948 61 WP MM IONE 1948-09-15 00:00:00 TS 27.4000 136.900 main 677 608 O________OOO__ jtwc_wp WP141948 27.4000 136.900 110 3 27.4000 136.900 TC 110 27.4000 136.900 4 110 27.4000 136.900 110 928 240 13 338
1948255N14155 1948 61 WP MM IONE 1948-09-15 03:00:00 TS 27.9967 136.650 main 608 539 P________PPP__ WP141948 27.9624 136.662 100 3 27.9624 136.662 TC 100 28.0996 136.614 4 105 27.9624 136.662 100 929 240 13 343
1948255N14155 1948 61 WP MM IONE 1948-09-15 06:00:00 TS 28.6566 136.478 main 528 448 O________OPO__ jtwc_wp WP141948 28.6000 136.500 90 2 28.6000 136.500 TC 90 28.8266 136.414 4 100 28.6000 136.500 90 931 240 15 350
1948255N14155 1948 61 WP MM IONE 1948-09-15 09:00:00 TS 29.4563 136.343 main 437 348 P________PPP__ WP141948 29.4200 136.355 90 2 29.4200 136.355 TC 90 29.5653 136.306 4 95 29.4200 136.355 90 932 240 17 355
1948255N14155 1948 61 WP MM IONE 1948-09-15 12:00:00 TS 30.3000 136.300 main 348 260 O________OOO__ jtwc_wp WP141948 30.3000 136.300 90 2 30.3000 136.300 TC 90 30.3000 136.300 4 90 30.3000 136.300 90 934 240 16 0
1948255N14155 1948 61 WP MM IONE 1948-09-15 15:00:00 TS 31.0960 136.324 main 260 187 P________PPP__ WP141948 31.1374 136.340 90 2 31.1374 136.340 TC 90 30.9719 136.276 4 90 31.1374 136.340 90 936 270 15 5
1948255N14155 1948 61 WP MM IONE 1948-09-15 18:00:00 TS 31.8356 136.467 main 190 134 O________OPO__ jtwc_wp WP141948 31.9000 136.500 90 2 31.9000 136.500 TC 90 31.6426 136.367 4 90 31.9000 136.500 90 938 300 14 12
1948255N14155 1948 61 WP MM IONE 1948-09-15 21:00:00 TS 32.4486 136.674 main 139 114 P________PPP__ WP141948 32.4841 136.690 90 2 32.4841 136.690 TC 90 32.3421 136.624 4 90 32.4841 136.690 90 940 300 14 23
1948255N14155 1948 61 WP MM IONE 1948-09-16 00:00:00 TS 33.1000 137.100 main 116 85 O________OOO__ jtwc_wp WP141948 33.1000 137.100 90 2 33.1000 137.100 TC 90 33.1000 137.100 4 90 33.1000 137.100 90 942 300 18 33
1948255N14155 1948 61 WP MM IONE 1948-09-16 03:00:00 TS 33.9520 137.822 main 76 9 P________PPP__ WP141948 33.9548 137.823 85 2 33.9548 137.823 TC 85 33.9438 137.820 4 85 33.9548 137.823 85 945 330 23 38
1948255N14155 1948 61 WP MM IONE 1948-09-16 06:00:00 TS 34.8853 138.792 main 0 0 O________OPO__ jtwc_wp WP141948 34.9000 138.800 80 1 34.9000 138.800 TC 80 34.8413 138.770 4 80 34.9000 138.800 80 948 360 25 43
1948255N14155 1948 61 WP MM IONE 1948-09-16 09:00:00 TS 35.7804 139.891 main 0 0 P________PPP__ WP141948 35.7847 139.892 75 1 35.7847 139.892 TC 75 35.7677 139.886 4 75 35.7847 139.892 75 951 390 26 46
1948255N14155 1948 61 WP MM IONE 1948-09-16 12:00:00 TS 36.7000 141.100 main 34 28 O________OOO__ jtwc_wp WP141948 36.7000 141.100 70 1 36.7000 141.100 TC 70 36.7000 141.100 4 70 36.7000 141.100 70 954 420 27 46
1948255N14155 1948 61 WP MM IONE 1948-09-16 15:00:00 TS 37.6906 142.329 main 96 96 P________PPP__ WP141948 37.7137 142.321 60 0 37.7137 142.321 TC 60 37.6214 142.353 4 65 37.7137 142.321 60 958 450 28 45
1948255N14155 1948 61 WP MM IONE 1948-09-16 18:00:00 TS 38.6572 143.609 main 156 156 O________OPO__ jtwc_wp WP141948 38.7000 143.600 50 0 38.7000 143.600 TC 50 38.5289 143.637 4 60 38.7000 143.600 50 962 480 27 48
1948255N14155 1948 61 WP MM IONE 1948-09-16 21:00:00 TS 39.5167 144.936 main 239 239 P________PPP__ WP141948 39.5482 144.930 50 0 39.5482 144.930 TC 50 39.4222 144.952 4 55 39.5482 144.930 50 966 510 26 52
1948255N14155 1948 61 WP MM IONE 1948-09-17 00:00:00 TS 40.3000 146.300 main 313 O________OOO__ jtwc_wp WP141948 40.3000 146.300 50 0 40.3000 146.300 TC 50 40.3000 146.300 2 50 40.3000 146.300 50 970 540 26 53

Digital Typhoon Data and Search

About IBTrACS Database

This database is a web-friendly format of International Best Track Archive for Climate Stewardship (IBTrACS), a global best track data archive curated by NOAA dating back to 1842.

Updated: 2021-10-21